sensor_id;sensor_type;location;lat;lon;timestamp;P1;durP1;ratioP1;P2;durP2;ratioP2
9834;SDS011;4956;50.996;13.716;2022-11-15T00:01:38;43.25;;;29.42;;
9834;SDS011;4956;50.996;13.716;2022-11-15T00:05:17;52.65;;;34.88;;
9834;SDS011;4956;50.996;13.716;2022-11-15T00:08:59;47.72;;;31.88;;
9834;SDS011;4956;50.996;13.716;2022-11-15T00:12:38;50.17;;;32.70;;
9834;SDS011;4956;50.996;13.716;2022-11-15T00:16:18;53.38;;;35.60;;
9834;SDS011;4956;50.996;13.716;2022-11-15T00:19:57;56.28;;;36.40;;
9834;SDS011;4956;50.996;13.716;2022-11-15T00:23:36;53.15;;;35.08;;
9834;SDS011;4956;50.996;13.716;2022-11-15T00:27:16;55.08;;;36.03;;
9834;SDS011;4956;50.996;13.716;2022-11-15T00:31:05;52.95;;;35.28;;
9834;SDS011;4956;50.996;13.716;2022-11-15T00:34:45;55.97;;;36.30;;
9834;SDS011;4956;50.996;13.716;2022-11-15T00:38:24;54.67;;;35.20;;
9834;SDS011;4956;50.996;13.716;2022-11-15T00:42:03;51.80;;;33.50;;
9834;SDS011;4956;50.996;13.716;2022-11-15T00:45:42;47.63;;;32.15;;
9834;SDS011;4956;50.996;13.716;2022-11-15T00:49:21;45.33;;;30.27;;
9834;SDS011;4956;50.996;13.716;2022-11-15T00:53:00;40.55;;;27.38;;
9834;SDS011;4956;50.996;13.716;2022-11-15T00:56:38;43.42;;;28.90;;
9834;SDS011;4956;50.996;13.716;2022-11-15T01:00:17;37.35;;;25.83;;
9834;SDS011;4956;50.996;13.716;2022-11-15T01:03:56;36.80;;;25.27;;
9834;SDS011;4956;50.996;13.716;2022-11-15T01:07:36;34.47;;;22.23;;
9834;SDS011;4956;50.996;13.716;2022-11-15T01:11:15;28.92;;;19.73;;
9834;SDS011;4956;50.996;13.716;2022-11-15T01:14:54;27.30;;;18.35;;
9834;SDS011;4956;50.996;13.716;2022-11-15T01:18:33;26.95;;;17.77;;
9834;SDS011;4956;50.996;13.716;2022-11-15T01:22:12;26.60;;;17.40;;
9834;SDS011;4956;50.996;13.716;2022-11-15T01:25:51;26.88;;;17.75;;
9834;SDS011;4956;50.996;13.716;2022-11-15T01:29:30;25.35;;;16.83;;
9834;SDS011;4956;50.996;13.716;2022-11-15T01:33:09;22.25;;;15.13;;
9834;SDS011;4956;50.996;13.716;2022-11-15T01:36:48;22.63;;;15.60;;
9834;SDS011;4956;50.996;13.716;2022-11-15T01:40:27;22.88;;;14.85;;
9834;SDS011;4956;50.996;13.716;2022-11-15T01:48:25;20.42;;;13.93;;
9834;SDS011;4956;50.996;13.716;2022-11-15T01:52:13;21.67;;;14.02;;
9834;SDS011;4956;50.996;13.716;2022-11-15T01:55:54;22.85;;;15.65;;
9834;SDS011;4956;50.996;13.716;2022-11-15T01:59:34;34.53;;;23.02;;
9834;SDS011;4956;50.996;13.716;2022-11-15T02:03:13;37.67;;;25.17;;
9834;SDS011;4956;50.996;13.716;2022-11-15T02:06:52;35.30;;;23.38;;
9834;SDS011;4956;50.996;13.716;2022-11-15T02:10:31;34.47;;;22.35;;
9834;SDS011;4956;50.996;13.716;2022-11-15T02:14:13;30.45;;;21.25;;
9834;SDS011;4956;50.996;13.716;2022-11-15T02:22:00;31.48;;;20.98;;
9834;SDS011;4956;50.996;13.716;2022-11-15T02:30:03;33.85;;;21.77;;
9834;SDS011;4956;50.996;13.716;2022-11-15T02:38:15;33.33;;;22.42;;
9834;SDS011;4956;50.996;13.716;2022-11-15T02:42:08;30.45;;;20.10;;
9834;SDS011;4956;50.996;13.716;2022-11-15T02:50:34;36.85;;;23.05;;
9834;SDS011;4956;50.996;13.716;2022-11-15T02:54:23;36.42;;;24.17;;
9834;SDS011;4956;50.996;13.716;2022-11-15T03:02:14;43.08;;;26.08;;
9834;SDS011;4956;50.996;13.716;2022-11-15T03:10:07;46.33;;;28.17;;
9834;SDS011;4956;50.996;13.716;2022-11-15T03:17:41;40.08;;;24.75;;
9834;SDS011;4956;50.996;13.716;2022-11-15T03:21:50;34.97;;;22.25;;
9834;SDS011;4956;50.996;13.716;2022-11-15T03:25:32;41.55;;;25.15;;
9834;SDS011;4956;50.996;13.716;2022-11-15T03:29:17;38.63;;;23.52;;
9834;SDS011;4956;50.996;13.716;2022-11-15T03:33:01;38.00;;;24.10;;
9834;SDS011;4956;50.996;13.716;2022-11-15T03:36:41;41.35;;;24.65;;
9834;SDS011;4956;50.996;13.716;2022-11-15T03:40:22;39.03;;;24.33;;
9834;SDS011;4956;50.996;13.716;2022-11-15T03:44:08;38.92;;;24.70;;
9834;SDS011;4956;50.996;13.716;2022-11-15T03:51:48;35.25;;;22.70;;
9834;SDS011;4956;50.996;13.716;2022-11-15T03:55:27;34.88;;;22.25;;
9834;SDS011;4956;50.996;13.716;2022-11-15T03:59:06;35.47;;;22.63;;
9834;SDS011;4956;50.996;13.716;2022-11-15T04:02:45;35.97;;;21.98;;
9834;SDS011;4956;50.996;13.716;2022-11-15T04:06:24;37.40;;;23.58;;
9834;SDS011;4956;50.996;13.716;2022-11-15T04:10:03;36.20;;;22.75;;
9834;SDS011;4956;50.996;13.716;2022-11-15T04:13:44;31.15;;;19.80;;
9834;SDS011;4956;50.996;13.716;2022-11-15T04:17:22;33.28;;;20.30;;
9834;SDS011;4956;50.996;13.716;2022-11-15T04:21:01;29.75;;;20.02;;
9834;SDS011;4956;50.996;13.716;2022-11-15T04:24:59;33.08;;;20.33;;
9834;SDS011;4956;50.996;13.716;2022-11-15T04:28:38;32.67;;;19.80;;
9834;SDS011;4956;50.996;13.716;2022-11-15T04:32:36;30.95;;;19.23;;
9834;SDS011;4956;50.996;13.716;2022-11-15T04:36:15;33.67;;;19.15;;
9834;SDS011;4956;50.996;13.716;2022-11-15T04:40:30;27.25;;;16.98;;
9834;SDS011;4956;50.996;13.716;2022-11-15T04:44:09;28.05;;;18.17;;
9834;SDS011;4956;50.996;13.716;2022-11-15T04:47:48;27.90;;;18.10;;
9834;SDS011;4956;50.996;13.716;2022-11-15T04:51:27;30.48;;;18.52;;
9834;SDS011;4956;50.996;13.716;2022-11-15T04:55:07;26.80;;;16.73;;
9834;SDS011;4956;50.996;13.716;2022-11-15T04:58:48;30.10;;;17.15;;
9834;SDS011;4956;50.996;13.716;2022-11-15T05:02:27;23.58;;;15.43;;
9834;SDS011;4956;50.996;13.716;2022-11-15T05:06:26;24.83;;;16.52;;
9834;SDS011;4956;50.996;13.716;2022-11-15T05:10:05;26.77;;;17.00;;
9834;SDS011;4956;50.996;13.716;2022-11-15T05:13:44;26.35;;;16.50;;
9834;SDS011;4956;50.996;13.716;2022-11-15T05:17:23;27.02;;;17.33;;
9834;SDS011;4956;50.996;13.716;2022-11-15T05:21:06;26.50;;;16.58;;
9834;SDS011;4956;50.996;13.716;2022-11-15T05:24:45;24.50;;;16.02;;
9834;SDS011;4956;50.996;13.716;2022-11-15T05:28:24;27.17;;;17.48;;
9834;SDS011;4956;50.996;13.716;2022-11-15T05:32:04;26.60;;;17.13;;
9834;SDS011;4956;50.996;13.716;2022-11-15T05:35:46;28.80;;;17.70;;
9834;SDS011;4956;50.996;13.716;2022-11-15T05:39:29;27.10;;;17.50;;
9834;SDS011;4956;50.996;13.716;2022-11-15T05:43:08;26.70;;;16.52;;
9834;SDS011;4956;50.996;13.716;2022-11-15T05:46:48;26.95;;;17.02;;
9834;SDS011;4956;50.996;13.716;2022-11-15T05:50:28;26.58;;;15.73;;
9834;SDS011;4956;50.996;13.716;2022-11-15T05:54:07;23.13;;;15.05;;
9834;SDS011;4956;50.996;13.716;2022-11-15T05:57:46;24.67;;;15.40;;
9834;SDS011;4956;50.996;13.716;2022-11-15T06:01:25;20.92;;;13.30;;
9834;SDS011;4956;50.996;13.716;2022-11-15T06:05:05;22.55;;;13.98;;
9834;SDS011;4956;50.996;13.716;2022-11-15T06:08:44;21.80;;;14.13;;
9834;SDS011;4956;50.996;13.716;2022-11-15T06:12:23;20.90;;;13.32;;
9834;SDS011;4956;50.996;13.716;2022-11-15T06:16:03;22.60;;;14.43;;
9834;SDS011;4956;50.996;13.716;2022-11-15T06:19:42;21.63;;;14.75;;
9834;SDS011;4956;50.996;13.716;2022-11-15T06:23:21;21.02;;;13.35;;
9834;SDS011;4956;50.996;13.716;2022-11-15T06:26:59;27.15;;;17.15;;
9834;SDS011;4956;50.996;13.716;2022-11-15T06:30:39;29.95;;;19.08;;
9834;SDS011;4956;50.996;13.716;2022-11-15T06:34:18;29.38;;;17.30;;
9834;SDS011;4956;50.996;13.716;2022-11-15T06:38:01;29.35;;;15.60;;
9834;SDS011;4956;50.996;13.716;2022-11-15T06:41:41;26.77;;;16.42;;
9834;SDS011;4956;50.996;13.716;2022-11-15T06:45:20;25.10;;;17.23;;
9834;SDS011;4956;50.996;13.716;2022-11-15T06:48:59;26.58;;;17.20;;
9834;SDS011;4956;50.996;13.716;2022-11-15T06:52:38;28.10;;;18.13;;
9834;SDS011;4956;50.996;13.716;2022-11-15T06:56:17;30.23;;;18.25;;
9834;SDS011;4956;50.996;13.716;2022-11-15T06:59:56;31.70;;;18.73;;
9834;SDS011;4956;50.996;13.716;2022-11-15T07:03:35;29.05;;;18.83;;
9834;SDS011;4956;50.996;13.716;2022-11-15T07:07:15;31.35;;;19.25;;
9834;SDS011;4956;50.996;13.716;2022-11-15T07:10:54;32.40;;;20.90;;
9834;SDS011;4956;50.996;13.716;2022-11-15T07:14:38;33.65;;;20.45;;
9834;SDS011;4956;50.996;13.716;2022-11-15T07:18:17;31.27;;;20.90;;
9834;SDS011;4956;50.996;13.716;2022-11-15T07:21:56;31.33;;;20.65;;
9834;SDS011;4956;50.996;13.716;2022-11-15T07:25:35;30.60;;;20.55;;
9834;SDS011;4956;50.996;13.716;2022-11-15T07:29:15;29.40;;;18.77;;
9834;SDS011;4956;50.996;13.716;2022-11-15T07:32:57;26.42;;;17.90;;
9834;SDS011;4956;50.996;13.716;2022-11-15T07:36:37;29.20;;;19.52;;
9834;SDS011;4956;50.996;13.716;2022-11-15T07:40:17;28.38;;;18.98;;
9834;SDS011;4956;50.996;13.716;2022-11-15T07:43:56;31.40;;;18.63;;
9834;SDS011;4956;50.996;13.716;2022-11-15T07:47:36;30.05;;;19.75;;
9834;SDS011;4956;50.996;13.716;2022-11-15T07:51:15;26.70;;;17.98;;
9834;SDS011;4956;50.996;13.716;2022-11-15T07:54:54;27.08;;;18.17;;
9834;SDS011;4956;50.996;13.716;2022-11-15T07:58:33;24.88;;;17.00;;
9834;SDS011;4956;50.996;13.716;2022-11-15T08:02:13;29.90;;;17.33;;
9834;SDS011;4956;50.996;13.716;2022-11-15T08:05:52;27.70;;;17.35;;
9834;SDS011;4956;50.996;13.716;2022-11-15T08:09:31;25.38;;;17.63;;
9834;SDS011;4956;50.996;13.716;2022-11-15T08:13:10;25.70;;;17.23;;
9834;SDS011;4956;50.996;13.716;2022-11-15T08:16:50;27.95;;;17.15;;
9834;SDS011;4956;50.996;13.716;2022-11-15T08:20:29;27.27;;;18.55;;
9834;SDS011;4956;50.996;13.716;2022-11-15T08:24:09;28.38;;;18.00;;
9834;SDS011;4956;50.996;13.716;2022-11-15T08:27:51;24.83;;;17.83;;
9834;SDS011;4956;50.996;13.716;2022-11-15T08:31:31;24.38;;;17.17;;
9834;SDS011;4956;50.996;13.716;2022-11-15T08:35:10;24.65;;;16.67;;
9834;SDS011;4956;50.996;13.716;2022-11-15T08:38:49;24.08;;;16.23;;
9834;SDS011;4956;50.996;13.716;2022-11-15T08:42:28;25.05;;;16.65;;
9834;SDS011;4956;50.996;13.716;2022-11-15T08:46:08;25.40;;;16.65;;
9834;SDS011;4956;50.996;13.716;2022-11-15T08:49:50;23.92;;;16.20;;
9834;SDS011;4956;50.996;13.716;2022-11-15T08:53:29;21.30;;;15.65;;
9834;SDS011;4956;50.996;13.716;2022-11-15T08:57:08;24.42;;;15.57;;
9834;SDS011;4956;50.996;13.716;2022-11-15T09:00:48;24.90;;;17.13;;
9834;SDS011;4956;50.996;13.716;2022-11-15T09:04:27;23.23;;;16.75;;
9834;SDS011;4956;50.996;13.716;2022-11-15T09:08:07;21.92;;;16.00;;
9834;SDS011;4956;50.996;13.716;2022-11-15T09:11:46;25.05;;;15.98;;
9834;SDS011;4956;50.996;13.716;2022-11-15T09:15:25;20.90;;;15.60;;
9834;SDS011;4956;50.996;13.716;2022-11-15T09:19:05;24.20;;;16.63;;
9834;SDS011;4956;50.996;13.716;2022-11-15T09:22:44;22.27;;;16.55;;
9834;SDS011;4956;50.996;13.716;2022-11-15T09:26:23;26.20;;;17.77;;
9834;SDS011;4956;50.996;13.716;2022-11-15T09:30:02;25.50;;;17.67;;
9834;SDS011;4956;50.996;13.716;2022-11-15T09:33:45;25.35;;;17.15;;
9834;SDS011;4956;50.996;13.716;2022-11-15T09:37:24;26.02;;;18.02;;
9834;SDS011;4956;50.996;13.716;2022-11-15T09:45:01;27.20;;;18.13;;
9834;SDS011;4956;50.996;13.716;2022-11-15T09:48:56;26.25;;;17.83;;
9834;SDS011;4956;50.996;13.716;2022-11-15T09:52:25;26.48;;;18.33;;
9834;SDS011;4956;50.996;13.716;2022-11-15T09:55:58;30.58;;;20.05;;
9834;SDS011;4956;50.996;13.716;2022-11-15T10:03:16;30.63;;;20.90;;
9834;SDS011;4956;50.996;13.716;2022-11-15T10:06:42;33.28;;;21.42;;
9834;SDS011;4956;50.996;13.716;2022-11-15T10:10:16;34.90;;;23.70;;
9834;SDS011;4956;50.996;13.716;2022-11-15T10:13:44;33.45;;;22.02;;
9834;SDS011;4956;50.996;13.716;2022-11-15T10:17:17;34.08;;;23.08;;
9834;SDS011;4956;50.996;13.716;2022-11-15T10:24:12;39.08;;;23.92;;
9834;SDS011;4956;50.996;13.716;2022-11-15T10:27:33;36.30;;;23.13;;
9834;SDS011;4956;50.996;13.716;2022-11-15T10:30:55;32.42;;;22.30;;
9834;SDS011;4956;50.996;13.716;2022-11-15T10:34:26;36.25;;;23.27;;
9834;SDS011;4956;50.996;13.716;2022-11-15T10:37:46;37.05;;;23.23;;
9834;SDS011;4956;50.996;13.716;2022-11-15T10:41:07;37.78;;;23.90;;
9834;SDS011;4956;50.996;13.716;2022-11-15T10:44:31;35.80;;;22.88;;
9834;SDS011;4956;50.996;13.716;2022-11-15T10:47:52;36.13;;;24.10;;
9834;SDS011;4956;50.996;13.716;2022-11-15T10:51:33;33.72;;;21.92;;
9834;SDS011;4956;50.996;13.716;2022-11-15T10:58:37;34.45;;;22.73;;
9834;SDS011;4956;50.996;13.716;2022-11-15T11:02:00;36.15;;;23.38;;
9834;SDS011;4956;50.996;13.716;2022-11-15T11:05:28;36.75;;;23.02;;
9834;SDS011;4956;50.996;13.716;2022-11-15T11:09:02;36.42;;;23.60;;
9834;SDS011;4956;50.996;13.716;2022-11-15T11:12:27;33.72;;;22.15;;
9834;SDS011;4956;50.996;13.716;2022-11-15T11:15:55;34.13;;;22.08;;
9834;SDS011;4956;50.996;13.716;2022-11-15T11:19:56;33.97;;;22.02;;
9834;SDS011;4956;50.996;13.716;2022-11-15T11:23:22;36.10;;;22.50;;
9834;SDS011;4956;50.996;13.716;2022-11-15T11:30:45;38.80;;;22.67;;
9834;SDS011;4956;50.996;13.716;2022-11-15T11:48:46;34.80;;;22.10;;
9834;SDS011;4956;50.996;13.716;2022-11-15T11:55:42;31.95;;;21.00;;
9834;SDS011;4956;50.996;13.716;2022-11-15T11:59:07;32.55;;;21.15;;
9834;SDS011;4956;50.996;13.716;2022-11-15T12:02:38;29.98;;;20.73;;
9834;SDS011;4956;50.996;13.716;2022-11-15T12:06:00;33.30;;;22.10;;
9834;SDS011;4956;50.996;13.716;2022-11-15T12:13:10;32.38;;;21.15;;
9834;SDS011;4956;50.996;13.716;2022-11-15T12:16:33;34.60;;;21.65;;
9834;SDS011;4956;50.996;13.716;2022-11-15T12:19:57;34.17;;;21.27;;
9834;SDS011;4956;50.996;13.716;2022-11-15T12:23:40;34.08;;;21.75;;
9834;SDS011;4956;50.996;13.716;2022-11-15T12:27:07;34.80;;;22.27;;
9834;SDS011;4956;50.996;13.716;2022-11-15T12:37:58;35.10;;;22.23;;
9834;SDS011;4956;50.996;13.716;2022-11-15T12:41:19;33.42;;;22.00;;
9834;SDS011;4956;50.996;13.716;2022-11-15T12:55:08;33.33;;;20.63;;
9834;SDS011;4956;50.996;13.716;2022-11-15T12:58:58;32.30;;;21.67;;
9834;SDS011;4956;50.996;13.716;2022-11-15T13:02:26;35.65;;;21.48;;
9834;SDS011;4956;50.996;13.716;2022-11-15T13:05:55;31.55;;;20.83;;
9834;SDS011;4956;50.996;13.716;2022-11-15T13:16:18;33.25;;;21.33;;
9834;SDS011;4956;50.996;13.716;2022-11-15T13:19:40;34.75;;;21.58;;
9834;SDS011;4956;50.996;13.716;2022-11-15T13:23:02;30.98;;;19.85;;
9834;SDS011;4956;50.996;13.716;2022-11-15T13:26:28;32.47;;;21.33;;
9834;SDS011;4956;50.996;13.716;2022-11-15T13:29:48;33.78;;;20.88;;
9834;SDS011;4956;50.996;13.716;2022-11-15T13:33:22;32.15;;;21.13;;
9834;SDS011;4956;50.996;13.716;2022-11-15T13:36:45;30.88;;;19.83;;
9834;SDS011;4956;50.996;13.716;2022-11-15T13:40:10;32.72;;;20.52;;
9834;SDS011;4956;50.996;13.716;2022-11-15T13:43:37;32.28;;;19.65;;
9834;SDS011;4956;50.996;13.716;2022-11-15T13:47:06;31.77;;;19.95;;
9834;SDS011;4956;50.996;13.716;2022-11-15T13:50:33;29.27;;;19.33;;
9834;SDS011;4956;50.996;13.716;2022-11-15T13:54:05;31.42;;;20.63;;
9834;SDS011;4956;50.996;13.716;2022-11-15T13:57:36;31.33;;;20.23;;
9834;SDS011;4956;50.996;13.716;2022-11-15T14:01:19;29.73;;;19.38;;
9834;SDS011;4956;50.996;13.716;2022-11-15T14:04:53;30.15;;;19.40;;
9834;SDS011;4956;50.996;13.716;2022-11-15T14:08:22;31.75;;;19.70;;
9834;SDS011;4956;50.996;13.716;2022-11-15T14:11:51;30.27;;;19.75;;
9834;SDS011;4956;50.996;13.716;2022-11-15T14:15:24;33.67;;;20.75;;
9834;SDS011;4956;50.996;13.716;2022-11-15T14:18:51;34.13;;;21.27;;
9834;SDS011;4956;50.996;13.716;2022-11-15T14:22:13;30.85;;;20.63;;
9834;SDS011;4956;50.996;13.716;2022-11-15T14:25:40;33.95;;;21.40;;
9834;SDS011;4956;50.996;13.716;2022-11-15T14:29:25;30.05;;;19.95;;
9834;SDS011;4956;50.996;13.716;2022-11-15T14:32:50;31.38;;;20.50;;
9834;SDS011;4956;50.996;13.716;2022-11-15T14:39:40;33.72;;;20.52;;
9834;SDS011;4956;50.996;13.716;2022-11-15T14:43:01;32.42;;;20.48;;
9834;SDS011;4956;50.996;13.716;2022-11-15T14:46:21;30.00;;;19.13;;
9834;SDS011;4956;50.996;13.716;2022-11-15T14:49:41;32.80;;;19.90;;
9834;SDS011;4956;50.996;13.716;2022-11-15T14:53:02;31.98;;;19.38;;
9834;SDS011;4956;50.996;13.716;2022-11-15T14:56:23;31.42;;;20.48;;
9834;SDS011;4956;50.996;13.716;2022-11-15T14:59:43;31.50;;;19.30;;
9834;SDS011;4956;50.996;13.716;2022-11-15T15:03:04;29.95;;;19.92;;
9834;SDS011;4956;50.996;13.716;2022-11-15T15:06:25;29.63;;;19.08;;
9834;SDS011;4956;50.996;13.716;2022-11-15T15:09:46;31.05;;;18.85;;
9834;SDS011;4956;50.996;13.716;2022-11-15T15:13:15;28.65;;;18.83;;
9834;SDS011;4956;50.996;13.716;2022-11-15T15:16:40;29.67;;;18.45;;
9834;SDS011;4956;50.996;13.716;2022-11-15T15:20:00;29.70;;;18.63;;
9834;SDS011;4956;50.996;13.716;2022-11-15T15:23:20;30.60;;;19.20;;
9834;SDS011;4956;50.996;13.716;2022-11-15T15:26:43;29.85;;;18.73;;
9834;SDS011;4956;50.996;13.716;2022-11-15T15:30:03;28.85;;;18.17;;
9834;SDS011;4956;50.996;13.716;2022-11-15T15:33:24;32.38;;;19.42;;
9834;SDS011;4956;50.996;13.716;2022-11-15T15:36:44;31.90;;;19.23;;
9834;SDS011;4956;50.996;13.716;2022-11-15T15:40:13;29.17;;;18.42;;
9834;SDS011;4956;50.996;13.716;2022-11-15T15:43:34;28.33;;;17.58;;
9834;SDS011;4956;50.996;13.716;2022-11-15T15:46:54;29.73;;;18.63;;
9834;SDS011;4956;50.996;13.716;2022-11-15T15:53:45;29.00;;;17.88;;
9834;SDS011;4956;50.996;13.716;2022-11-15T15:57:06;29.88;;;19.83;;
9834;SDS011;4956;50.996;13.716;2022-11-15T16:00:27;30.00;;;18.92;;
9834;SDS011;4956;50.996;13.716;2022-11-15T16:03:48;27.85;;;17.98;;
9834;SDS011;4956;50.996;13.716;2022-11-15T16:07:12;29.42;;;17.88;;
9834;SDS011;4956;50.996;13.716;2022-11-15T16:10:37;28.08;;;17.90;;
9834;SDS011;4956;50.996;13.716;2022-11-15T16:13:57;30.25;;;18.83;;
9834;SDS011;4956;50.996;13.716;2022-11-15T16:17:18;28.27;;;17.48;;
9834;SDS011;4956;50.996;13.716;2022-11-15T16:20:41;28.50;;;17.08;;
9834;SDS011;4956;50.996;13.716;2022-11-15T16:24:04;26.35;;;17.63;;
9834;SDS011;4956;50.996;13.716;2022-11-15T16:27:25;25.02;;;16.45;;
9834;SDS011;4956;50.996;13.716;2022-11-15T16:30:45;26.02;;;16.65;;
9834;SDS011;4956;50.996;13.716;2022-11-15T16:34:08;27.45;;;17.02;;
9834;SDS011;4956;50.996;13.716;2022-11-15T16:37:28;28.60;;;17.45;;
9834;SDS011;4956;50.996;13.716;2022-11-15T16:40:49;28.45;;;18.50;;
9834;SDS011;4956;50.996;13.716;2022-11-15T16:44:09;25.02;;;16.58;;
9834;SDS011;4956;50.996;13.716;2022-11-15T16:47:29;26.60;;;17.67;;
9834;SDS011;4956;50.996;13.716;2022-11-15T16:50:50;28.30;;;18.15;;
9834;SDS011;4956;50.996;13.716;2022-11-15T16:54:13;26.98;;;16.80;;
9834;SDS011;4956;50.996;13.716;2022-11-15T16:57:34;25.23;;;16.38;;
9834;SDS011;4956;50.996;13.716;2022-11-15T17:00:55;24.75;;;15.48;;
9834;SDS011;4956;50.996;13.716;2022-11-15T17:04:17;22.20;;;14.40;;
9834;SDS011;4956;50.996;13.716;2022-11-15T17:07:38;25.33;;;15.60;;
9834;SDS011;4956;50.996;13.716;2022-11-15T17:10:59;24.27;;;15.80;;
9834;SDS011;4956;50.996;13.716;2022-11-15T17:14:19;25.75;;;16.42;;
9834;SDS011;4956;50.996;13.716;2022-11-15T17:17:40;25.10;;;16.00;;
9834;SDS011;4956;50.996;13.716;2022-11-15T17:21:04;21.95;;;15.25;;
9834;SDS011;4956;50.996;13.716;2022-11-15T17:24:25;25.90;;;16.63;;
9834;SDS011;4956;50.996;13.716;2022-11-15T17:27:46;26.08;;;16.73;;
9834;SDS011;4956;50.996;13.716;2022-11-15T17:31:07;26.02;;;16.13;;
9834;SDS011;4956;50.996;13.716;2022-11-15T17:34:28;25.95;;;16.27;;
9834;SDS011;4956;50.996;13.716;2022-11-15T17:37:49;26.35;;;15.48;;
9834;SDS011;4956;50.996;13.716;2022-11-15T17:41:11;24.83;;;16.90;;
9834;SDS011;4956;50.996;13.716;2022-11-15T17:44:32;26.33;;;17.20;;
9834;SDS011;4956;50.996;13.716;2022-11-15T17:47:53;26.92;;;18.38;;
9834;SDS011;4956;50.996;13.716;2022-11-15T17:51:14;24.60;;;17.23;;
9834;SDS011;4956;50.996;13.716;2022-11-15T17:54:35;26.65;;;17.52;;
9834;SDS011;4956;50.996;13.716;2022-11-15T17:57:55;28.85;;;17.77;;
9834;SDS011;4956;50.996;13.716;2022-11-15T18:01:26;27.85;;;17.80;;
9834;SDS011;4956;50.996;13.716;2022-11-15T18:04:47;26.13;;;16.63;;
9834;SDS011;4956;50.996;13.716;2022-11-15T18:08:11;29.58;;;18.38;;
9834;SDS011;4956;50.996;13.716;2022-11-15T18:11:34;28.42;;;17.58;;
9834;SDS011;4956;50.996;13.716;2022-11-15T18:14:58;26.92;;;17.23;;
9834;SDS011;4956;50.996;13.716;2022-11-15T18:18:19;27.27;;;17.80;;
9834;SDS011;4956;50.996;13.716;2022-11-15T18:21:40;28.58;;;18.70;;
9834;SDS011;4956;50.996;13.716;2022-11-15T18:25:18;30.20;;;18.58;;
9834;SDS011;4956;50.996;13.716;2022-11-15T18:28:39;29.42;;;18.40;;
9834;SDS011;4956;50.996;13.716;2022-11-15T18:32:04;31.80;;;19.33;;
9834;SDS011;4956;50.996;13.716;2022-11-15T18:35:30;36.45;;;19.73;;
9834;SDS011;4956;50.996;13.716;2022-11-15T18:38:54;28.80;;;17.75;;
9834;SDS011;4956;50.996;13.716;2022-11-15T18:42:15;31.45;;;18.33;;
9834;SDS011;4956;50.996;13.716;2022-11-15T18:45:35;28.60;;;17.85;;
9834;SDS011;4956;50.996;13.716;2022-11-15T18:48:57;33.30;;;19.17;;
9834;SDS011;4956;50.996;13.716;2022-11-15T18:52:18;28.38;;;17.63;;
9834;SDS011;4956;50.996;13.716;2022-11-15T18:55:38;31.10;;;18.55;;
9834;SDS011;4956;50.996;13.716;2022-11-15T18:58:59;31.63;;;17.77;;
9834;SDS011;4956;50.996;13.716;2022-11-15T19:02:21;25.38;;;16.58;;
9834;SDS011;4956;50.996;13.716;2022-11-15T19:05:41;27.52;;;17.20;;
9834;SDS011;4956;50.996;13.716;2022-11-15T19:09:01;28.05;;;17.90;;
9834;SDS011;4956;50.996;13.716;2022-11-15T19:12:22;25.58;;;16.65;;
9834;SDS011;4956;50.996;13.716;2022-11-15T19:15:42;28.48;;;17.80;;
9834;SDS011;4956;50.996;13.716;2022-11-15T19:19:04;25.38;;;16.35;;
9834;SDS011;4956;50.996;13.716;2022-11-15T19:22:26;26.13;;;16.40;;
9834;SDS011;4956;50.996;13.716;2022-11-15T19:25:57;26.52;;;16.65;;
9834;SDS011;4956;50.996;13.716;2022-11-15T19:29:18;26.25;;;16.48;;
9834;SDS011;4956;50.996;13.716;2022-11-15T19:32:38;26.95;;;16.67;;
9834;SDS011;4956;50.996;13.716;2022-11-15T19:36:03;29.20;;;16.25;;
9834;SDS011;4956;50.996;13.716;2022-11-15T19:39:24;25.55;;;15.57;;
9834;SDS011;4956;50.996;13.716;2022-11-15T19:42:45;23.67;;;14.85;;
9834;SDS011;4956;50.996;13.716;2022-11-15T19:46:05;24.70;;;15.30;;
9834;SDS011;4956;50.996;13.716;2022-11-15T19:49:26;21.70;;;14.73;;
9834;SDS011;4956;50.996;13.716;2022-11-15T19:52:47;22.90;;;14.95;;
9834;SDS011;4956;50.996;13.716;2022-11-15T19:56:09;25.20;;;15.55;;
9834;SDS011;4956;50.996;13.716;2022-11-15T19:59:31;24.25;;;14.52;;
9834;SDS011;4956;50.996;13.716;2022-11-15T20:02:51;25.08;;;15.25;;
9834;SDS011;4956;50.996;13.716;2022-11-15T20:06:12;20.50;;;13.80;;
9834;SDS011;4956;50.996;13.716;2022-11-15T20:09:34;22.67;;;13.95;;
9834;SDS011;4956;50.996;13.716;2022-11-15T20:12:55;26.20;;;15.70;;
9834;SDS011;4956;50.996;13.716;2022-11-15T20:16:16;23.95;;;14.50;;
9834;SDS011;4956;50.996;13.716;2022-11-15T20:19:38;26.83;;;15.55;;
9834;SDS011;4956;50.996;13.716;2022-11-15T20:22:58;23.20;;;15.07;;
9834;SDS011;4956;50.996;13.716;2022-11-15T20:26:19;23.45;;;14.70;;
9834;SDS011;4956;50.996;13.716;2022-11-15T20:29:39;26.23;;;15.82;;
9834;SDS011;4956;50.996;13.716;2022-11-15T20:33:00;28.63;;;17.15;;
9834;SDS011;4956;50.996;13.716;2022-11-15T20:36:20;24.13;;;15.15;;
9834;SDS011;4956;50.996;13.716;2022-11-15T20:39:40;21.95;;;14.40;;
9834;SDS011;4956;50.996;13.716;2022-11-15T20:43:01;24.63;;;14.43;;
9834;SDS011;4956;50.996;13.716;2022-11-15T20:46:21;22.60;;;14.52;;
9834;SDS011;4956;50.996;13.716;2022-11-15T20:49:42;20.15;;;13.23;;
9834;SDS011;4956;50.996;13.716;2022-11-15T20:53:05;22.15;;;13.57;;
9834;SDS011;4956;50.996;13.716;2022-11-15T20:56:25;21.27;;;13.43;;
9834;SDS011;4956;50.996;13.716;2022-11-15T20:59:46;25.80;;;16.50;;
9834;SDS011;4956;50.996;13.716;2022-11-15T21:03:06;25.30;;;15.55;;
9834;SDS011;4956;50.996;13.716;2022-11-15T21:06:26;23.92;;;14.40;;
9834;SDS011;4956;50.996;13.716;2022-11-15T21:09:47;22.17;;;13.57;;
9834;SDS011;4956;50.996;13.716;2022-11-15T21:13:26;20.63;;;13.75;;
9834;SDS011;4956;50.996;13.716;2022-11-15T21:16:46;20.55;;;12.80;;
9834;SDS011;4956;50.996;13.716;2022-11-15T21:20:07;21.20;;;13.63;;
9834;SDS011;4956;50.996;13.716;2022-11-15T21:23:27;22.38;;;13.73;;
9834;SDS011;4956;50.996;13.716;2022-11-15T21:26:48;20.02;;;13.20;;
9834;SDS011;4956;50.996;13.716;2022-11-15T21:30:08;22.02;;;14.63;;
9834;SDS011;4956;50.996;13.716;2022-11-15T21:33:29;22.55;;;14.15;;
9834;SDS011;4956;50.996;13.716;2022-11-15T21:36:49;19.80;;;13.02;;
9834;SDS011;4956;50.996;13.716;2022-11-15T21:40:10;20.55;;;13.00;;
9834;SDS011;4956;50.996;13.716;2022-11-15T21:43:30;20.80;;;12.82;;
9834;SDS011;4956;50.996;13.716;2022-11-15T21:46:51;19.75;;;12.85;;
9834;SDS011;4956;50.996;13.716;2022-11-15T21:50:11;18.58;;;12.05;;
9834;SDS011;4956;50.996;13.716;2022-11-15T21:53:31;18.70;;;13.02;;
9834;SDS011;4956;50.996;13.716;2022-11-15T21:56:52;20.88;;;13.75;;
9834;SDS011;4956;50.996;13.716;2022-11-15T22:00:13;18.15;;;11.43;;
9834;SDS011;4956;50.996;13.716;2022-11-15T22:03:52;18.90;;;11.82;;
9834;SDS011;4956;50.996;13.716;2022-11-15T22:07:13;16.75;;;11.63;;
9834;SDS011;4956;50.996;13.716;2022-11-15T22:10:33;19.52;;;11.68;;
9834;SDS011;4956;50.996;13.716;2022-11-15T22:13:53;19.45;;;12.02;;
9834;SDS011;4956;50.996;13.716;2022-11-15T22:17:14;17.98;;;11.32;;
9834;SDS011;4956;50.996;13.716;2022-11-15T22:20:34;17.13;;;10.77;;
9834;SDS011;4956;50.996;13.716;2022-11-15T22:23:55;17.67;;;11.40;;
9834;SDS011;4956;50.996;13.716;2022-11-15T22:27:15;15.73;;;10.93;;
9834;SDS011;4956;50.996;13.716;2022-11-15T22:30:35;15.55;;;10.68;;
9834;SDS011;4956;50.996;13.716;2022-11-15T22:33:56;17.35;;;11.20;;
9834;SDS011;4956;50.996;13.716;2022-11-15T22:37:16;16.67;;;10.88;;
9834;SDS011;4956;50.996;13.716;2022-11-15T22:40:37;15.93;;;10.18;;